Terminal Aerodrome Forecast
Issued by NWS

Home | Current Version | Previous Version | Text Only | Print | Product List | Glossary On
Versions: 1 2 3 4 5 6 7 8 9 10 11 12 13 14 15 16 17 18 19 20 21
000
FTUS41 KOKX 262300 RRA
TAFSWF
TAF
KSWF 262349Z 2700/2806 36006KT P6SM SCT035 OVC080
      TEMPO 2700/2701 OVC030
     FM270300 VRB03KT P6SM SCT030 BKN060
     FM271300 33007KT P6SM SCT030 BKN060
     FM271800 33009KT P6SM SCT020 BKN040
     FM272200 33008KT P6SM SCT040
     FM280100 34005KT P6SM SKC
      AMD NOT SKED=

USA.gov is the U.S. government's official web portal to all federal, state and local government web resources and services.